Time;durP1;ratioP1;P1;durP2;ratioP2;P2;SDS_P1;SDS_P2;PMS_P1;PMS_P2;Temp;Humidity;BMP_temperature;BMP_pressure;BME280_temperature;BME280_humidity;BME280_pressure;Samples;Min_cycle;Max_cycle;Signal;HPM_P1;HPM_P2
2023/06/13 00:01:35;;;;;;;53.55;13.13;;;;;;;19.64;97.46;98029.22;4997063;28;20022;-44
2023/06/13 00:04:03;;;;;;;70.18;19.20;;;;;;;19.54;97.08;98027.41;5014449;28;20046;-44
2023/06/13 00:06:29;;;;;;;50.15;16.90;;;;;;;19.52;97.65;98029.53;5014400;28;20101;-44
2023/06/13 00:08:57;;;;;;;53.05;19.00;;;;;;;19.51;96.74;98035.13;4996991;28;20530;-44
2023/06/13 00:11:22;;;;;;;91.65;31.02;;;;;;;19.51;96.27;98030.59;5014414;28;20026;-44
2023/06/13 00:13:48;;;;;;;63.03;21.67;;;;;;;19.49;94.78;98029.28;5014483;28;20048;-44
2023/06/13 00:16:15;;;;;;;17.70;8.55;;;;;;;19.50;94.70;98029.03;4996737;28;20037;-44
2023/06/13 00:18:40;;;;;;;8.50;5.38;;;;;;;19.50;95.74;98030.91;5014711;28;20456;-44
2023/06/13 00:21:07;;;;;;;61.13;30.50;;;;;;;19.48;95.00;98022.41;5014263;28;20041;-44
2023/06/13 00:23:33;;;;;;;29.00;18.77;;;;;;;19.46;94.28;98013.88;4996822;28;20105;-44
2023/06/13 00:25:59;;;;;;;9.68;5.90;;;;;;;19.52;95.27;98018.91;5014091;28;20121;-44
2023/06/13 00:28:25;;;;;;;15.45;6.72;;;;;;;19.52;93.92;98013.56;5014218;28;20033;-44
2023/06/13 00:30:51;;;;;;;51.20;27.55;;;;;;;19.54;93.84;98015.97;5014356;28;20053;-44
2023/06/13 00:33:17;;;;;;;160.20;73.68;;;;;;;19.59;92.36;98018.59;5014051;28;20443;-44
2023/06/13 00:35:46;;;;;;;58.40;22.15;;;;;;;19.63;91.93;98008.19;5013935;28;20030;-44
2023/06/13 00:38:12;;;;;;;225.13;94.43;;;;;;;19.65;90.99;98011.38;5013999;28;20018;-44
2023/06/13 00:40:41;;;;;;;60.30;26.45;;;;;;;19.60;90.62;98006.88;4996412;28;20112;-44
2023/06/13 00:43:07;;;;;;;21.80;9.27;;;;;;;19.64;90.54;98013.25;5013908;28;20058;-44
2023/06/13 00:45:33;;;;;;;14.32;4.72;;;;;;;19.67;90.52;98015.34;4996156;28;20057;-44
2023/06/13 00:48:02;;;;;;;19.83;16.20;;;;;;;19.63;90.81;98008.19;5013829;28;20431;-44
2023/06/13 00:50:36;;;;;;;8.80;5.82;;;;;;;19.58;91.21;98006.38;4980207;28;20037;-44
2023/06/13 00:53:09;;;;;;;5.40;3.50;;;;;;;19.62;91.63;98011.91;5013689;28;20403;-44
2023/06/13 00:55:36;;;;;;;31.55;23.13;;;;;;;19.73;91.84;98016.13;4996009;28;20057;-44
2023/06/13 00:58:10;;;;;;;132.70;122.18;;;;;;;19.86;91.40;98014.72;5013333;28;20109;-44
2023/06/13 01:00:37;;;;;;;54.88;50.38;;;;;;;20.00;92.22;98023.69;4997101;28;20108;-44
2023/06/13 01:03:09;;;;;;;21.80;14.82;;;;;;;19.91;91.16;98015.47;4999602;28;20053;-44
2023/06/13 01:05:35;;;;;;;34.47;24.05;;;;;;;19.86;90.15;98014.72;5033250;28;20490;-44
2023/06/13 01:08:06;;;;;;;37.97;31.95;;;;;;;19.77;91.01;98017.19;5033310;28;20029;-44
2023/06/13 01:10:33;;;;;;;34.22;27.55;;;;;;;19.91;92.19;98020.00;5015486;28;20030;-44
2023/06/13 01:13:24;;;;;;;37.92;30.17;;;;;;;20.05;90.45;98028.16;5015252;28;20395;-44
2023/06/13 01:15:50;;;;;;;16.27;3.95;;;;;;;20.28;88.21;98024.78;5032961;28;20026;-44
2023/06/13 01:18:18;;;;;;;22.98;16.13;;;;;;;20.50;87.36;98021.66;5033019;28;20037;-44
2023/06/13 01:20:46;;;;;;;49.03;36.13;;;;;;;20.76;87.30;98026.75;5033200;28;20376;-44
2023/06/13 01:23:21;;;;;;;21.17;10.27;;;;;;;21.19;85.58;98024.13;5032974;28;20059;-44
2023/06/13 01:26:04;;;;;;;18.55;11.82;;;;;;;21.41;84.61;98012.09;5015035;28;20565;-44
2023/06/13 01:28:33;;;;;;;29.40;20.13;;;;;;;21.41;81.37;98009.44;5032951;28;20112;-45
2023/06/13 01:31:02;;;;;;;21.25;13.27;;;;;;;21.09;80.98;98018.94;5033016;28;20022;-44
2023/06/13 01:33:29;;;;;;;84.60;76.95;;;;;;;20.85;82.21;98014.38;5032749;28;20040;-45
2023/06/13 01:35:55;;;;;;;34.63;31.25;;;;;;;20.92;83.10;98025.50;5014887;28;20029;-44
2023/06/13 01:38:21;;;;;;;73.38;67.10;;;;;;;21.00;81.93;98023.28;5014986;28;20075;-44
2023/06/13 01:40:50;;;;;;;46.33;41.42;;;;;;;21.02;81.92;98013.13;5032615;28;20030;-44
2023/06/13 01:43:16;;;;;;;34.78;31.88;;;;;;;20.99;81.36;98016.34;5032523;28;20025;-44
2023/06/13 01:45:42;;;;;;;29.42;26.48;;;;;;;20.91;81.10;98015.13;5014727;28;20036;-44
2023/06/13 01:48:35;;;;;;;28.48;23.05;;;;;;;20.84;81.49;98012.00;5014989;28;20120;-44
2023/06/13 01:51:07;;;;;;;45.63;35.05;;;;;;;20.90;82.66;98008.97;5032414;28;20398;-44
2023/06/13 01:53:58;;;;;;;20.48;9.32;;;;;;;20.74;81.81;98020.91;5032508;28;20033;-44
2023/06/13 01:56:31;;;;;;;22.17;13.23;;;;;;;20.71;82.01;98014.28;5031738;28;20045;-44
2023/06/13 01:59:05;;;;;;;19.85;11.52;;;;;;;20.69;81.65;98007.63;5014569;28;20418;-44
2023/06/13 02:01:32;;;;;;;36.08;32.25;;;;;;;20.66;80.88;98006.31;5014518;28;20087;-44
2023/06/13 02:03:59;;;;;;;14.65;8.60;;;;;;;20.61;79.92;98013.59;5020606;28;20041;-44
2023/06/13 02:06:26;;;;;;;38.47;25.90;;;;;;;20.53;79.93;98007.75;5012352;28;20467;-44
2023/06/13 02:08:52;;;;;;;78.50;71.20;;;;;;;20.53;79.12;98009.63;5012189;28;20022;-44
2023/06/13 02:11:18;;;;;;;90.85;82.25;;;;;;;20.48;79.57;98007.81;5012186;28;20522;-44
2023/06/13 02:13:44;;;;;;;26.73;22.92;;;;;;;20.39;79.02;98012.16;4994900;28;20033;-44
2023/06/13 02:16:11;;;;;;;54.00;49.47;;;;;;;20.25;79.54;98017.34;5012300;28;20080;-44
2023/06/13 02:18:37;;;;;;;39.45;36.05;;;;;;;20.28;79.97;98016.78;5012210;28;20037;-44
2023/06/13 02:21:03;;;;;;;87.38;80.00;;;;;;;20.40;79.63;98011.06;5012186;28;20561;-44
2023/06/13 02:23:28;;;;;;;65.90;60.22;;;;;;;20.50;77.90;98005.66;4994786;28;20037;-44
2023/06/13 02:25:55;;;;;;;41.70;38.28;;;;;;;20.50;77.37;97999.53;5012049;28;20034;-44
2023/06/13 02:28:21;;;;;;;18.67;5.07;;;;;;;20.48;78.04;97999.00;5012361;28;20484;-44
2023/06/13 02:30:48;;;;;;;30.65;26.10;;;;;;;20.68;77.60;98011.38;4994452;28;20032;-44
2023/06/13 02:33:15;;;;;;;161.75;147.82;;;;;;;20.79;76.21;98004.84;5012097;28;20435;-44
2023/06/13 02:35:41;;;;;;;65.93;56.35;;;;;;;20.86;75.61;97994.63;5012042;28;20026;-44
2023/06/13 02:38:07;;;;;;;66.13;49.83;;;;;;;20.79;74.45;97996.84;5012284;28;20022;-44
2023/06/13 02:40:35;;;;;;;30.83;28.13;;;;;;;20.65;74.96;97996.75;5011958;28;20048;-44
2023/06/13 02:43:01;;;;;;;39.85;35.53;;;;;;;20.69;76.39;97996.97;5011955;28;20045;-44
2023/06/13 02:45:27;;;;;;;31.98;26.17;;;;;;;20.73;75.91;97993.44;5011883;28;20487;-44
2023/06/13 02:47:54;;;;;;;22.92;14.68;;;;;;;20.91;75.48;97996.47;5011933;28;20046;-44
2023/06/13 02:50:21;;;;;;;23.52;17.77;;;;;;;20.92;74.83;97990.81;4994286;28;20466;-44
2023/06/13 02:52:47;;;;;;;7.97;6.95;;;;;;;21.11;74.42;97982.88;5011851;28;20597;-44
2023/06/13 02:55:13;;;;;;;13.70;6.22;;;;;;;21.00;74.19;97988.63;5011837;28;20080;-44
2023/06/13 02:57:39;;;;;;;15.38;7.68;;;;;;;20.93;74.91;97987.09;4994205;28;20034;-44
2023/06/13 03:00:11;;;;;;;24.42;20.20;;;;;;;20.85;74.50;97990.38;5011706;28;20045;-44
2023/06/13 03:02:37;;;;;;;20.02;8.93;;;;;;;20.75;74.84;97991.28;5011639;28;20109;-45
2023/06/13 03:05:06;;;;;;;17.45;7.40;;;;;;;20.69;75.44;97992.44;5011725;28;20029;-44
2023/06/13 03:07:32;;;;;;;12.90;9.27;;;;;;;20.64;75.61;97986.34;5011775;28;20495;-44
2023/06/13 03:10:00;;;;;;;13.77;11.75;;;;;;;20.71;75.67;97995.59;4994081;28;20080;-44
2023/06/13 03:12:25;;;;;;;19.70;11.43;;;;;;;20.74;76.00;97991.56;5011964;28;20025;-44
2023/06/13 03:14:51;;;;;;;8.18;7.35;;;;;;;20.76;75.41;97992.06;5011691;28;20447;-44
2023/06/13 03:17:17;;;;;;;20.70;14.35;;;;;;;20.71;75.53;97992.94;5011689;28;20372;-44
2023/06/13 03:19:43;;;;;;;12.88;7.47;;;;;;;20.62;75.15;97989.28;5011617;28;20104;-44
2023/06/13 03:22:13;;;;;;;9.57;5.65;;;;;;;20.44;75.61;97990.78;5014941;28;20105;-44
2023/06/13 03:24:42;;;;;;;20.75;13.70;;;;;;;20.30;76.25;97990.66;5015567;28;20518;-44
2023/06/13 03:27:09;;;;;;;59.47;54.47;;;;;;;20.21;76.95;97995.00;4997762;28;20092;-44
2023/06/13 03:29:35;;;;;;;29.75;27.25;;;;;;;20.16;77.33;97992.38;5015589;28;20445;-44
2023/06/13 03:32:01;;;;;;;93.15;84.63;;;;;;;20.15;77.75;97990.78;5015223;28;20037;-44
2023/06/13 03:34:28;;;;;;;120.70;108.93;;;;;;;20.20;78.35;97985.41;5015317;28;20075;-44
2023/06/13 03:36:54;;;;;;;69.00;62.60;;;;;;;20.19;77.33;97991.81;5015292;28;20022;-44
2023/06/13 03:39:20;;;;;;;93.05;85.15;;;;;;;20.18;78.14;97995.53;5015220;28;20026;-44
2023/06/13 03:41:46;;;;;;;41.30;37.85;;;;;;;20.24;77.49;97996.31;4997494;28;20028;-44
2023/06/13 03:44:12;;;;;;;54.42;49.22;;;;;;;20.24;78.28;98001.63;4997442;28;20030;-44
2023/06/13 03:46:37;;;;;;;22.58;19.73;;;;;;;20.54;78.09;98001.38;5015003;28;20034;-44
2023/06/13 03:49:03;;;;;;;30.13;26.00;;;;;;;20.74;76.70;97995.06;4997373;28;20583;-45
2023/06/13 03:51:29;;;;;;;12.57;5.10;;;;;;;20.75;75.46;97995.84;5014980;28;20029;-45
2023/06/13 03:53:55;;;;;;;40.30;27.90;;;;;;;20.67;75.36;97993.78;4997255;28;20084;-44
2023/06/13 03:56:21;;;;;;;30.58;13.93;;;;;;;20.73;75.79;98000.66;4997143;28;20065;-45
2023/06/13 03:58:46;;;;;;;32.25;26.55;;;;;;;20.74;75.86;97994.22;5014831;28;20152;-44
2023/06/13 04:01:12;;;;;;;78.70;72.60;;;;;;;20.73;75.90;97993.44;5014768;28;20612;-44
2023/06/13 04:03:39;;;;;;;79.28;73.18;;;;;;;20.61;76.15;97995.72;5014546;28;20052;-45
2023/06/13 04:06:08;;;;;;;36.45;33.45;;;;;;;20.50;76.22;97999.53;4997266;28;20099;-44
2023/06/13 04:08:38;;;;;;;52.30;47.55;;;;;;;20.49;77.53;97995.28;5014540;28;20061;-44
2023/06/13 04:11:04;;;;;;;70.78;63.67;;;;;;;20.70;78.02;97993.22;5014503;28;20033;-44
2023/06/13 04:13:30;;;;;;;64.80;58.92;;;;;;;20.78;78.28;98000.59;4980735;28;20030;-44
2023/06/13 04:15:56;;;;;;;17.17;13.65;;;;;;;20.87;78.45;98003.44;4996769;28;20554;-44
2023/06/13 04:18:23;;;;;;;20.83;15.45;;;;;;;20.95;78.32;98002.81;4996808;28;20144;-44
2023/06/13 04:20:52;;;;;;;116.30;105.90;;;;;;;21.08;78.47;97999.44;5014258;28;20496;-44
2023/06/13 04:23:19;;;;;;;53.00;47.72;;;;;;;21.21;78.04;98005.16;4997434;28;20087;-44
2023/06/13 04:25:45;;;;;;;58.50;53.33;;;;;;;21.29;77.64;97993.88;5014178;28;20022;-44
2023/06/13 04:28:13;;;;;;;25.73;23.10;;;;;;;21.23;77.73;97995.78;5014163;28;20105;-44
2023/06/13 04:30:40;;;;;;;51.25;45.75;;;;;;;21.14;78.07;98000.16;5014060;28;20030;-44
2023/06/13 04:33:14;;;;;;;46.03;41.58;;;;;;;21.09;78.20;98005.59;5013525;28;20026;-44
2023/06/13 04:35:44;;;;;;;42.10;38.40;;;;;;;21.11;78.39;98006.09;5014106;28;20061;-44
2023/06/13 04:38:11;;;;;;;29.92;20.55;;;;;;;21.18;78.30;98009.19;5014321;28;20112;-44
2023/06/13 04:40:38;;;;;;;80.43;72.57;;;;;;;21.33;78.10;98017.00;4996430;28;20037;-44
2023/06/13 04:43:05;;;;;;;71.80;59.35;;;;;;;21.50;78.00;98010.41;5013927;28;20126;-44
2023/06/13 04:45:33;;;;;;;21.60;13.88;;;;;;;21.67;77.75;98010.72;4996551;28;20040;-44
2023/06/13 04:48:01;;;;;;;44.17;28.38;;;;;;;21.74;77.11;98013.00;5013837;28;20112;-44
2023/06/13 04:50:28;;;;;;;36.88;29.10;;;;;;;21.71;76.88;98011.72;5014051;28;20022;-44
2023/06/13 04:52:57;;;;;;;16.13;6.85;;;;;;;21.72;76.79;98010.63;5013777;28;20626;-44
2023/06/13 04:55:25;;;;;;;22.80;11.95;;;;;;;21.82;76.48;98014.25;5013684;28;20504;-45
2023/06/13 04:57:51;;;;;;;15.38;5.20;;;;;;;21.83;75.54;98013.13;5013704;28;20021;-45
2023/06/13 05:00:18;;;;;;;31.60;28.38;;;;;;;21.78;75.21;98021.25;4996043;28;20376;-44
2023/06/13 05:02:45;;;;;;;25.58;20.23;;;;;;;21.76;74.92;98023.41;5013536;28;20026;-45
2023/06/13 05:05:11;;;;;;;100.43;91.82;;;;;;;21.77;74.78;98012.41;4996357;28;20073;-44
2023/06/13 05:07:39;;;;;;;45.00;34.53;;;;;;;21.75;74.37;98014.59;4995838;28;20428;-44
2023/06/13 05:10:05;;;;;;;27.50;14.82;;;;;;;21.72;74.96;98015.19;5013513;28;20386;-45
2023/06/13 05:12:31;;;;;;;45.05;40.35;;;;;;;21.70;74.68;98026.16;5013425;28;20032;-44
2023/06/13 05:14:56;;;;;;;16.05;7.32;;;;;;;21.60;74.49;98018.28;5013368;28;20038;-44
2023/06/13 05:17:22;;;;;;;36.97;16.40;;;;;;;21.57;74.40;98018.88;4995628;28;20029;-44
2023/06/13 05:19:48;;;;;;;23.02;10.73;;;;;;;21.49;74.68;98022.97;4995622;28;20025;-45
2023/06/13 05:22:15;;;;;;;15.23;12.85;;;;;;;21.35;74.62;98019.41;4995652;28;20081;-44
2023/06/13 05:24:41;;;;;;;23.10;18.85;;;;;;;21.19;75.60;98032.16;5013077;28;20026;-44
2023/06/13 05:27:07;;;;;;;36.83;29.55;;;;;;;21.22;76.00;98026.22;5013125;28;20034;-45
2023/06/13 05:29:33;;;;;;;12.40;5.70;;;;;;;21.33;75.42;98033.03;5013359;28;20097;-44
2023/06/13 05:31:59;;;;;;;22.80;14.18;;;;;;;21.29;74.85;98036.56;5013073;28;20101;-44
2023/06/13 05:34:26;;;;;;;34.25;24.30;;;;;;;21.30;75.38;98035.47;5012961;28;20204;-44
2023/06/13 05:36:52;;;;;;;101.60;93.40;;;;;;;21.34;75.09;98028.47;5012951;28;20029;-44
2023/06/13 05:39:18;;;;;;;21.67;12.65;;;;;;;21.38;75.16;98034.84;5013162;28;20032;-44
2023/06/13 05:41:44;;;;;;;20.77;16.60;;;;;;;21.40;75.10;98026.53;5012899;28;20033;-44
2023/06/13 05:44:09;;;;;;;54.53;49.90;;;;;;;21.34;74.78;98028.47;4994540;28;20026;-44
2023/06/13 05:46:35;;;;;;;35.45;20.80;;;;;;;21.27;75.36;98028.84;4995058;28;20034;-44
2023/06/13 05:49:01;;;;;;;20.75;17.48;;;;;;;21.28;75.61;98029.63;5012825;28;20097;-44
2023/06/13 05:51:27;;;;;;;22.48;15.57;;;;;;;21.33;75.19;98032.25;4995111;28;20050;-44
2023/06/13 05:53:53;;;;;;;22.73;16.85;;;;;;;21.22;74.87;98030.78;5012640;28;20025;-44
2023/06/13 05:56:19;;;;;;;29.02;17.05;;;;;;;21.25;75.62;98031.00;4995004;28;20030;-44
2023/06/13 05:58:44;;;;;;;25.83;15.30;;;;;;;21.45;75.16;98031.81;4995226;28;20026;-45
2023/06/13 06:01:10;;;;;;;71.28;64.55;;;;;;;21.50;74.43;98023.75;5012442;28;20025;-44
2023/06/13 06:03:37;;;;;;;23.10;20.73;;;;;;;21.52;74.58;98022.38;5012412;28;20037;-44
2023/06/13 06:06:03;;;;;;;30.83;11.18;;;;;;;21.63;74.11;98019.56;4994656;28;20596;-44
2023/06/13 06:08:28;;;;;;;20.98;8.65;;;;;;;21.64;74.01;98021.97;5012421;28;20022;-45
2023/06/13 06:10:55;;;;;;;32.92;24.50;;;;;;;21.68;74.29;98022.97;5012596;28;20021;-44
2023/06/13 06:13:20;;;;;;;31.30;15.88;;;;;;;21.76;74.38;98023.41;5012325;28;20055;-44
2023/06/13 06:15:46;;;;;;;34.20;12.65;;;;;;;21.72;73.46;98023.19;5012358;28;20026;-44
2023/06/13 06:18:12;;;;;;;30.02;6.75;;;;;;;21.76;73.98;98013.50;5012326;28;20447;-44
2023/06/13 06:20:37;;;;;;;24.85;8.48;;;;;;;22.01;73.52;98020.34;4994582;28;20030;-45
2023/06/13 06:23:03;;;;;;;40.30;15.20;;;;;;;22.26;72.57;98015.72;4994572;28;20065;-45
2023/06/13 06:25:29;;;;;;;51.00;21.55;;;;;;;22.49;71.82;98028.13;4994391;28;20026;-45
2023/06/13 06:27:55;;;;;;;25.27;16.42;;;;;;;22.52;70.86;98019.53;4994566;28;20062;-44
2023/06/13 06:30:20;;;;;;;28.58;16.65;;;;;;;22.49;70.08;98017.41;4994497;28;20551;-45
2023/06/13 06:32:47;;;;;;;27.63;6.82;;;;;;;22.48;69.03;98012.38;4994471;28;20038;-45
2023/06/13 06:35:14;;;;;;;36.50;9.48;;;;;;;22.39;68.99;98019.50;5012262;28;20109;-44
2023/06/13 06:37:40;;;;;;;8.27;4.85;;;;;;;22.41;68.82;98017.31;5012063;28;20105;-44
2023/06/13 06:40:07;;;;;;;26.10;14.20;;;;;;;22.42;69.33;98010.91;4994569;28;20488;-45
2023/06/13 06:42:35;;;;;;;88.35;65.95;;;;;;;22.59;69.17;98011.09;5012204;28;20060;-45
2023/06/13 06:45:01;;;;;;;22.05;17.23;;;;;;;22.72;68.26;98010.34;5011918;28;20050;-44
2023/06/13 06:47:27;;;;;;;23.10;18.40;;;;;;;22.90;68.32;98008.66;4994292;28;20113;-45
2023/06/13 06:49:53;;;;;;;18.45;14.43;;;;;;;23.16;67.50;98007.38;4994600;28;20036;-45
2023/06/13 06:52:19;;;;;;;23.70;15.07;;;;;;;23.33;66.59;98002.19;5012153;28;20030;-45
2023/06/13 06:54:44;;;;;;;30.58;16.38;;;;;;;23.56;66.19;98003.00;5012211;28;20459;-44
2023/06/13 06:57:10;;;;;;;18.20;7.88;;;;;;;23.82;65.11;97999.78;5015379;28;20029;-44
2023/06/13 06:59:36;;;;;;;12.48;5.57;;;;;;;24.15;63.93;98003.03;5015854;28;20014;-44
2023/06/13 07:02:02;;;;;;;20.40;7.70;;;;;;;24.33;62.58;98004.69;5015891;28;20053;-45
2023/06/13 07:04:28;;;;;;;47.97;8.25;;;;;;;24.30;62.41;98001.84;5015584;28;20057;-45
2023/06/13 07:06:53;;;;;;;11.07;5.25;;;;;;;24.57;62.15;98000.09;5015658;28;20516;-44
2023/06/13 07:09:19;;;;;;;54.03;9.40;;;;;;;24.77;61.53;98004.94;5015811;28;20096;-45
2023/06/13 07:11:45;;;;;;;27.60;10.65;;;;;;;24.99;61.03;98000.56;5015688;28;20014;-45
2023/06/13 07:14:11;;;;;;;25.88;7.05;;;;;;;25.14;60.08;97993.97;4998011;28;20475;-45
2023/06/13 07:16:36;;;;;;;90.07;80.65;;;;;;;25.34;60.21;97995.31;5015595;28;20088;-45
2023/06/13 07:19:02;;;;;;;53.90;49.00;;;;;;;25.59;59.27;97996.41;4997954;28;20026;-45
2023/06/13 07:21:28;;;;;;;55.15;32.58;;;;;;;25.91;58.37;97989.78;5015511;28;20029;-45
2023/06/13 07:23:54;;;;;;;14.35;5.82;;;;;;;26.29;56.38;97994.47;4997845;28;20038;-45
2023/06/13 07:26:21;;;;;;;12.13;5.18;;;;;;;26.39;55.01;97996.03;5015548;28;20025;-45
2023/06/13 07:28:47;;;;;;;21.08;6.70;;;;;;;26.41;54.54;97989.22;5015386;28;20033;-45
2023/06/13 07:31:13;;;;;;;14.88;5.63;;;;;;;26.51;53.24;97996.16;5015358;28;20022;-45
2023/06/13 07:33:39;;;;;;;21.27;14.25;;;;;;;26.40;53.38;97986.84;4997777;28;20037;-45
2023/06/13 07:36:06;;;;;;;17.88;12.10;;;;;;;26.35;53.80;97993.19;5015279;28;20607;-45
2023/06/13 07:38:31;;;;;;;16.58;9.40;;;;;;;26.05;53.90;97978.88;5015200;28;20030;-45
2023/06/13 07:40:57;;;;;;;13.48;5.43;;;;;;;25.89;54.77;97991.97;4997479;28;20236;-45
2023/06/13 07:43:23;;;;;;;21.45;7.72;;;;;;;26.19;54.98;97989.44;4997438;28;20030;-45
2023/06/13 07:45:49;;;;;;;15.35;9.75;;;;;;;26.65;53.90;97985.19;5015004;28;20049;-45
2023/06/13 07:48:15;;;;;;;8.32;4.38;;;;;;;26.90;51.45;97983.47;5015247;28;20381;-45
2023/06/13 07:50:42;;;;;;;11.40;5.72;;;;;;;26.89;51.36;97985.38;5014981;28;20101;-45
2023/06/13 07:53:09;;;;;;;24.50;13.50;;;;;;;26.69;52.61;97986.13;5014875;28;20034;-45
2023/06/13 07:55:36;;;;;;;32.78;21.17;;;;;;;26.76;51.89;97994.47;5014917;28;20018;-45
2023/06/13 07:58:03;;;;;;;36.20;22.55;;;;;;;26.37;52.00;97990.19;4997201;28;20030;-45
2023/06/13 08:00:29;;;;;;;77.18;70.25;;;;;;;26.06;52.88;97981.25;4997148;28;20088;-45
2023/06/13 08:02:55;;;;;;;19.58;14.93;;;;;;;26.06;53.27;97988.53;4996974;28;20029;-45
2023/06/13 08:05:21;;;;;;;27.02;14.50;;;;;;;26.12;52.73;97979.19;5014690;28;20025;-45
2023/06/13 08:07:47;;;;;;;24.65;10.82;;;;;;;26.13;52.97;97980.75;5013703;28;20089;-45
2023/06/13 08:10:12;;;;;;;16.42;14.40;;;;;;;26.20;52.11;97981.06;4996977;28;20455;-45
2023/06/13 08:12:39;;;;;;;11.43;10.13;;;;;;;25.77;52.04;97986.47;5014557;28;20018;-45
2023/06/13 08:15:06;;;;;;;32.88;25.35;;;;;;;25.18;53.99;97984.19;4997344;28;20057;-45
2023/06/13 08:17:32;;;;;;;9.98;4.72;;;;;;;24.97;55.28;97983.97;4996873;28;20037;-45
2023/06/13 08:19:57;;;;;;;8.00;3.50;;;;;;;24.92;55.00;97988.38;4996838;28;20034;-45
2023/06/13 08:22:26;;;;;;;9.55;5.00;;;;;;;24.91;55.30;97984.13;4980804;28;20173;-45
2023/06/13 08:24:51;;;;;;;11.48;6.75;;;;;;;24.95;55.37;97984.31;5014202;28;20026;-45
2023/06/13 08:27:18;;;;;;;8.38;4.30;;;;;;;24.98;55.58;97981.00;4996709;28;20045;-45
2023/06/13 08:29:43;;;;;;;11.80;4.13;;;;;;;25.03;55.55;97983.53;4996729;28;20484;-45
2023/06/13 08:32:09;;;;;;;9.20;4.28;;;;;;;25.09;55.96;97984.16;5014268;28;20018;-45
2023/06/13 08:34:35;;;;;;;12.65;3.90;;;;;;;24.99;56.04;97989.81;5014136;28;20026;-45
2023/06/13 08:37:00;;;;;;;9.82;7.43;;;;;;;24.85;56.95;97990.75;4996772;28;20064;-45
2023/06/13 08:39:26;;;;;;;7.35;4.82;;;;;;;24.77;56.89;97988.84;5014100;28;20041;-45
2023/06/13 08:41:53;;;;;;;7.18;4.15;;;;;;;24.75;57.01;97987.53;5014062;28;20484;-45
2023/06/13 08:44:20;;;;;;;5.80;3.20;;;;;;;24.72;57.12;97988.97;4996325;28;20088;-45
2023/06/13 08:46:46;;;;;;;10.57;4.47;;;;;;;24.76;57.49;97981.88;4996226;28;20412;-45
2023/06/13 08:49:12;;;;;;;7.20;4.10;;;;;;;24.92;57.61;97985.72;5013886;28;20038;-45
2023/06/13 08:51:38;;;;;;;14.05;6.93;;;;;;;25.09;57.01;97978.78;4996545;28;20022;-44
2023/06/13 08:54:05;;;;;;;19.83;7.78;;;;;;;25.38;57.06;97982.84;4996243;28;20025;-45
2023/06/13 08:56:37;;;;;;;19.67;5.15;;;;;;;25.61;55.65;97976.19;5013628;28;20032;-45
2023/06/13 08:59:23;;;;;;;12.57;4.68;;;;;;;25.81;54.78;97977.44;4996081;28;20033;-45
2023/06/13 09:01:50;;;;;;;10.40;4.45;;;;;;;25.90;53.76;97974.78;4980297;28;20511;-45
2023/06/13 09:04:16;;;;;;;7.68;3.00;;;;;;;26.11;53.46;97974.91;5009261;28;20503;-45
2023/06/13 09:06:43;;;;;;;5.00;2.60;;;;;;;26.33;52.02;97973.88;5033259;28;20029;-45
2023/06/13 09:09:12;;;;;;;5.28;2.65;;;;;;;26.63;51.68;97965.91;5015422;28;20076;-45
2023/06/13 09:11:38;;;;;;;15.13;3.97;;;;;;;27.07;49.78;97963.75;5015755;28;20022;-45
2023/06/13 09:14:05;;;;;;;5.43;2.50;;;;;;;27.60;48.15;97966.88;5015431;28;20091;-45
2023/06/13 09:16:31;;;;;;;21.30;5.18;;;;;;;28.03;46.41;97960.31;5033155;28;20030;-45
2023/06/13 09:18:57;;;;;;;7.43;2.25;;;;;;;28.62;45.39;97953.81;5032980;28;20022;-45
2023/06/13 09:21:23;;;;;;;11.50;3.10;;;;;;;29.22;44.02;97954.88;5015184;28;20045;-45
2023/06/13 09:23:50;;;;;;;6.72;2.80;;;;;;;30.03;41.39;97954.03;5032977;28;20025;-46
2023/06/13 09:26:18;;;;;;;3.53;1.85;;;;;;;30.77;38.68;97948.91;5032868;28;20022;-45
2023/06/13 09:28:47;;;;;;;11.15;3.25;;;;;;;31.65;37.63;97942.25;5015120;28;20025;-45
2023/06/13 09:31:13;;;;;;;8.18;1.92;;;;;;;32.39;35.87;97939.31;5015031;28;20391;-45
2023/06/13 09:33:40;;;;;;;7.82;3.25;;;;;;;33.04;34.94;97932.13;5015185;28;20534;-46
2023/06/13 09:36:06;;;;;;;3.72;1.60;;;;;;;34.51;32.13;97936.47;5014957;28;20021;-46
2023/06/13 09:38:40;;;;;;;3.75;1.52;;;;;;;35.92;30.04;97933.25;5032733;28;20025;-46
2023/06/13 09:41:11;;;;;;;5.28;2.00;;;;;;;36.54;29.42;97937.59;5032692;28;20403;-46
2023/06/13 09:43:38;;;;;;;2.92;1.75;;;;;;;36.04;29.62;97929.38;5014904;28;20095;-46
2023/06/13 09:46:04;;;;;;;6.57;2.25;;;;;;;35.59;29.83;97935.09;5014779;28;20022;-46
2023/06/13 09:48:29;;;;;;;7.15;2.28;;;;;;;35.16;30.79;97929.50;5015034;28;20494;-46
2023/06/13 09:50:55;;;;;;;4.43;1.83;;;;;;;35.13;30.35;97935.66;5032486;28;20033;-46
2023/06/13 09:53:22;;;;;;;8.38;1.70;;;;;;;34.85;31.01;97938.25;4998487;28;20029;-46
2023/06/13 09:55:50;;;;;;;8.40;1.90;;;;;;;35.14;30.43;97936.47;5014663;28;20487;-46
2023/06/13 09:58:17;;;;;;;5.63;1.90;;;;;;;35.53;29.80;97931.19;5032405;28;20487;-46
2023/06/13 10:00:42;;;;;;;2.97;1.52;;;;;;;35.50;29.96;97928.47;5032336;28;20039;-46
2023/06/13 10:03:08;;;;;;;6.50;1.77;;;;;;;35.52;30.31;97926.13;4996379;28;20492;-47
2023/06/13 10:05:34;;;;;;;6.93;1.98;;;;;;;36.28;29.51;97927.84;5027469;28;20046;-46
2023/06/13 10:07:59;;;;;;;5.32;1.63;;;;;;;37.22;28.42;97930.44;4994856;28;20041;-46
2023/06/13 10:10:25;;;;;;;6.82;2.15;;;;;;;37.15;27.86;97925.78;4994780;28;20038;-46
2023/06/13 10:12:58;;;;;;;5.90;1.85;;;;;;;36.76;27.88;97921.16;5012391;28;20065;-46
2023/06/13 10:15:31;;;;;;;2.33;1.48;;;;;;;36.95;27.77;97920.75;4994732;28;20026;-46
2023/06/13 10:18:00;;;;;;;6.45;2.55;;;;;;;37.36;27.18;97930.38;4995309;28;20088;-46
2023/06/13 10:20:30;;;;;;;5.95;1.70;;;;;;;37.50;26.42;97918.59;4994631;28;20040;-46
2023/06/13 10:22:57;;;;;;;6.90;3.03;;;;;;;37.60;26.58;97917.00;5012567;28;20108;-46
2023/06/13 10:25:27;;;;;;;4.57;1.90;;;;;;;38.72;25.76;97907.53;5012136;28;20403;-46
2023/06/13 10:27:58;;;;;;;16.13;5.78;;;;;;;40.06;24.10;97909.34;5012194;28;20373;-48
2023/06/13 10:30:49;;;;;;;9.60;2.15;;;;;;;40.66;23.20;97901.28;4994050;28;20038;-49
2023/06/13 10:33:46;;;;;;;7.25;1.90;;;;;;;38.80;24.01;97913.72;5012172;28;20105;-49
2023/06/13 10:36:23;;;;;;;4.68;1.85;;;;;;;37.36;25.84;97909.25;4994450;28;20037;-48
2023/06/13 10:39:22;;;;;;;11.38;2.78;;;;;;;36.43;27.49;97909.50;4995090;28;20079;-46
2023/06/13 10:42:09;;;;;;;4.65;2.38;;;;;;;35.88;28.16;97905.16;5012155;28;20040;-45
2023/06/13 10:45:08;;;;;;;15.07;3.13;;;;;;;35.77;29.09;97902.41;4994459;28;20517;-45
2023/06/13 10:47:37;;;;;;;10.25;1.90;;;;;;;36.23;28.58;97903.66;4988625;28;20038;-46
2023/06/13 10:50:03;;;;;;;11.43;1.90;;;;;;;36.13;28.41;97899.72;4994399;28;20018;-46
2023/06/13 10:52:30;;;;;;;8.55;2.72;;;;;;;35.54;29.20;97899.22;5011902;28;20018;-46
2023/06/13 10:54:58;;;;;;;3.15;1.73;;;;;;;35.27;29.15;97896.78;5012176;28;20040;-45
2023/06/13 10:57:50;;;;;;;9.85;4.25;;;;;;;34.99;29.76;97886.53;5011878;28;20022;-45
2023/06/13 11:00:29;;;;;;;9.07;4.50;;;;;;;34.59;30.82;97891.75;5011751;28;20080;-46
2023/06/13 11:03:05;;;;;;;14.57;4.43;;;;;;;34.28;31.01;97895.81;5011919;28;20029;-45
2023/06/13 11:05:51;;;;;;;16.60;6.68;;;;;;;33.79;32.01;97892.25;5011635;28;20647;-45
2023/06/13 11:08:20;;;;;;;15.65;5.53;;;;;;;33.49;32.62;97886.88;5011258;28;20037;-45
2023/06/13 11:10:48;;;;;;;10.55;2.20;;;;;;;33.47;32.93;97885.69;4994161;28;20022;-46
2023/06/13 11:13:22;;;;;;;15.73;2.97;;;;;;;33.79;32.99;97883.31;4994055;28;20026;-46
2023/06/13 11:15:48;;;;;;;;;;;;;;;33.98;32.74;97874.91;5012240;28;20476;-46
2023/06/13 11:18:14;;;;;;;9.63;3.50;;;;;;;34.14;31.88;97876.63;4978002;28;19939;-45
2023/06/13 11:20:51;;;;;;;9.00;2.75;;;;;;;34.22;31.60;97865.41;4994072;28;20455;-45
2023/06/13 11:23:18;;;;;;;14.27;4.28;;;;;;;33.88;32.41;97874.81;4994030;28;20030;-45
2023/06/13 11:25:45;;;;;;;10.13;2.67;;;;;;;33.48;31.93;97871.69;4993976;28;20087;-45